Terminal Aerodrome Forecast
Issued by NWS

Home | Current Version | Previous Version | Text Only | Print | Product List | Glossary On
Versions: 1 2 3 4 5 6 7 8 9 10 11 12 13 14 15 16 17 18 19 20 21
000
FTUS46 KMFR 280340 AAA
TAFOTH
TAF AMD
KOTH 280340Z 2804/2824 36015G25KT 4SM BR OVC004
     FM280600 35014G20KT 3SM BR OVC003
     FM281100 35008G14KT 1SM BR OVC003
     FM281600 36012G18KT 4SM BR OVC006
     FM281800 35014G22KT P6SM BKN010
     FM281900 35020G30KT P6SM SCT012=

USA.gov is the U.S. government's official web portal to all federal, state and local government web resources and services.